sensor_id;sensor_type;location;lat;lon;timestamp;temperature;humidity
13892;DHT22;7016;48.172;8.058;2022-08-24T00:01:12;18.10;96.20
13892;DHT22;7016;48.172;8.058;2022-08-24T00:03:38;18.10;96.00
13892;DHT22;7016;48.172;8.058;2022-08-24T00:06:08;18.20;96.50
13892;DHT22;7016;48.172;8.058;2022-08-24T00:08:35;18.10;96.30
13892;DHT22;7016;48.172;8.058;2022-08-24T00:11:00;18.10;96.10
13892;DHT22;7016;48.172;8.058;2022-08-24T00:13:27;18.20;95.60
13892;DHT22;7016;48.172;8.058;2022-08-24T00:15:53;18.20;96.00
13892;DHT22;7016;48.172;8.058;2022-08-24T00:18:19;18.20;96.00
13892;DHT22;7016;48.172;8.058;2022-08-24T00:20:45;18.00;96.20
13892;DHT22;7016;48.172;8.058;2022-08-24T00:23:11;17.90;95.70
13892;DHT22;7016;48.172;8.058;2022-08-24T00:25:37;17.80;96.10
13892;DHT22;7016;48.172;8.058;2022-08-24T00:28:03;17.90;96.20
13892;DHT22;7016;48.172;8.058;2022-08-24T00:30:30;17.80;96.30
13892;DHT22;7016;48.172;8.058;2022-08-24T00:32:56;17.80;95.80
13892;DHT22;7016;48.172;8.058;2022-08-24T00:35:22;17.70;96.60
13892;DHT22;7016;48.172;8.058;2022-08-24T00:37:50;17.70;96.30
13892;DHT22;7016;48.172;8.058;2022-08-24T00:40:26;17.60;96.30
13892;DHT22;7016;48.172;8.058;2022-08-24T00:42:52;17.50;96.70
13892;DHT22;7016;48.172;8.058;2022-08-24T00:45:20;17.50;96.80
13892;DHT22;7016;48.172;8.058;2022-08-24T00:48:02;17.50;96.70
13892;DHT22;7016;48.172;8.058;2022-08-24T00:51:11;17.50;96.80
13892;DHT22;7016;48.172;8.058;2022-08-24T00:53:32;17.40;96.30
13892;DHT22;7016;48.172;8.058;2022-08-24T00:56:03;17.50;96.60
13892;DHT22;7016;48.172;8.058;2022-08-24T00:58:39;17.50;96.80
13892;DHT22;7016;48.172;8.058;2022-08-24T01:01:07;17.40;96.80
13892;DHT22;7016;48.172;8.058;2022-08-24T01:03:35;17.40;96.00
13892;DHT22;7016;48.172;8.058;2022-08-24T01:06:02;17.40;96.70
13892;DHT22;7016;48.172;8.058;2022-08-24T01:08:28;17.30;96.80
13892;DHT22;7016;48.172;8.058;2022-08-24T01:10:59;17.40;96.60
13892;DHT22;7016;48.172;8.058;2022-08-24T01:13:25;17.40;96.50
13892;DHT22;7016;48.172;8.058;2022-08-24T01:15:54;17.40;97.00
13892;DHT22;7016;48.172;8.058;2022-08-24T01:18:23;17.40;96.90
13892;DHT22;7016;48.172;8.058;2022-08-24T01:21:39;17.30;96.70
13892;DHT22;7016;48.172;8.058;2022-08-24T01:24:10;17.30;96.90
13892;DHT22;7016;48.172;8.058;2022-08-24T01:26:46;17.20;96.90
13892;DHT22;7016;48.172;8.058;2022-08-24T01:29:16;17.20;97.00
13892;DHT22;7016;48.172;8.058;2022-08-24T01:31:42;17.20;96.70
13892;DHT22;7016;48.172;8.058;2022-08-24T01:34:08;17.20;96.90
13892;DHT22;7016;48.172;8.058;2022-08-24T01:36:41;17.10;97.00
13892;DHT22;7016;48.172;8.058;2022-08-24T01:39:20;17.10;96.90
13892;DHT22;7016;48.172;8.058;2022-08-24T01:41:47;17.00;96.90
13892;DHT22;7016;48.172;8.058;2022-08-24T01:44:13;17.00;97.20
13892;DHT22;7016;48.172;8.058;2022-08-24T01:46:47;17.00;97.50
13892;DHT22;7016;48.172;8.058;2022-08-24T01:49:14;17.10;97.30
13892;DHT22;7016;48.172;8.058;2022-08-24T01:51:40;17.10;96.90
13892;DHT22;7016;48.172;8.058;2022-08-24T01:54:07;17.10;97.30
13892;DHT22;7016;48.172;8.058;2022-08-24T01:56:34;17.10;97.00
13892;DHT22;7016;48.172;8.058;2022-08-24T01:59:00;17.10;97.10
13892;DHT22;7016;48.172;8.058;2022-08-24T02:01:27;17.10;97.40
13892;DHT22;7016;48.172;8.058;2022-08-24T02:03:55;17.00;96.80
13892;DHT22;7016;48.172;8.058;2022-08-24T02:06:21;17.00;97.30
13892;DHT22;7016;48.172;8.058;2022-08-24T02:08:46;17.10;97.20
13892;DHT22;7016;48.172;8.058;2022-08-24T02:11:12;17.00;97.30
13892;DHT22;7016;48.172;8.058;2022-08-24T02:13:39;17.00;97.30
13892;DHT22;7016;48.172;8.058;2022-08-24T02:16:06;16.90;97.60
13892;DHT22;7016;48.172;8.058;2022-08-24T02:18:36;16.90;97.50
13892;DHT22;7016;48.172;8.058;2022-08-24T02:21:08;16.90;97.60
13892;DHT22;7016;48.172;8.058;2022-08-24T02:23:35;16.90;97.30
13892;DHT22;7016;48.172;8.058;2022-08-24T02:26:03;17.00;97.50
13892;DHT22;7016;48.172;8.058;2022-08-24T02:28:28;17.00;97.20
13892;DHT22;7016;48.172;8.058;2022-08-24T02:30:54;17.00;97.50
13892;DHT22;7016;48.172;8.058;2022-08-24T02:33:21;16.90;97.10
13892;DHT22;7016;48.172;8.058;2022-08-24T02:35:49;16.90;97.40
13892;DHT22;7016;48.172;8.058;2022-08-24T02:38:15;16.80;97.60
13892;DHT22;7016;48.172;8.058;2022-08-24T02:40:41;16.70;97.50
13892;DHT22;7016;48.172;8.058;2022-08-24T02:43:06;16.70;97.50
13892;DHT22;7016;48.172;8.058;2022-08-24T02:45:37;16.70;97.80
13892;DHT22;7016;48.172;8.058;2022-08-24T02:48:03;16.70;97.80
13892;DHT22;7016;48.172;8.058;2022-08-24T02:50:30;16.60;97.70
13892;DHT22;7016;48.172;8.058;2022-08-24T02:52:55;16.50;98.00
13892;DHT22;7016;48.172;8.058;2022-08-24T02:55:21;16.50;98.20
13892;DHT22;7016;48.172;8.058;2022-08-24T02:57:47;16.50;98.30
13892;DHT22;7016;48.172;8.058;2022-08-24T03:00:20;16.50;98.20
13892;DHT22;7016;48.172;8.058;2022-08-24T03:02:46;16.50;97.90
13892;DHT22;7016;48.172;8.058;2022-08-24T03:05:12;16.50;98.40
13892;DHT22;7016;48.172;8.058;2022-08-24T03:07:39;16.40;98.80
13892;DHT22;7016;48.172;8.058;2022-08-24T03:10:05;16.40;98.40
13892;DHT22;7016;48.172;8.058;2022-08-24T03:12:34;16.40;98.40
13892;DHT22;7016;48.172;8.058;2022-08-24T03:15:00;16.40;98.50
13892;DHT22;7016;48.172;8.058;2022-08-24T03:17:29;16.40;98.30
13892;DHT22;7016;48.172;8.058;2022-08-24T03:19:58;16.30;98.50
13892;DHT22;7016;48.172;8.058;2022-08-24T03:22:25;16.30;98.40
13892;DHT22;7016;48.172;8.058;2022-08-24T03:24:51;16.30;98.50
13892;DHT22;7016;48.172;8.058;2022-08-24T03:27:17;16.30;98.40
13892;DHT22;7016;48.172;8.058;2022-08-24T03:29:43;16.30;98.60
13892;DHT22;7016;48.172;8.058;2022-08-24T03:32:09;16.30;98.20
13892;DHT22;7016;48.172;8.058;2022-08-24T03:34:35;16.20;98.60
13892;DHT22;7016;48.172;8.058;2022-08-24T03:37:01;16.20;98.70
13892;DHT22;7016;48.172;8.058;2022-08-24T03:39:27;16.20;98.90
13892;DHT22;7016;48.172;8.058;2022-08-24T03:41:53;16.20;98.70
13892;DHT22;7016;48.172;8.058;2022-08-24T03:44:18;16.20;98.90
13892;DHT22;7016;48.172;8.058;2022-08-24T03:46:44;16.10;98.70
13892;DHT22;7016;48.172;8.058;2022-08-24T03:49:11;16.20;98.80
13892;DHT22;7016;48.172;8.058;2022-08-24T03:51:38;16.10;98.60
13892;DHT22;7016;48.172;8.058;2022-08-24T03:54:06;16.10;98.80
13892;DHT22;7016;48.172;8.058;2022-08-24T03:56:32;16.00;99.00
13892;DHT22;7016;48.172;8.058;2022-08-24T03:58:58;16.00;99.00
13892;DHT22;7016;48.172;8.058;2022-08-24T04:01:23;16.00;98.90
13892;DHT22;7016;48.172;8.058;2022-08-24T04:03:50;16.00;98.80
13892;DHT22;7016;48.172;8.058;2022-08-24T04:06:18;16.00;99.20
13892;DHT22;7016;48.172;8.058;2022-08-24T04:08:44;15.90;99.10
13892;DHT22;7016;48.172;8.058;2022-08-24T04:11:17;15.90;99.20
13892;DHT22;7016;48.172;8.058;2022-08-24T04:13:44;16.00;98.90
13892;DHT22;7016;48.172;8.058;2022-08-24T04:16:14;15.90;99.20
13892;DHT22;7016;48.172;8.058;2022-08-24T04:18:40;16.00;99.20
13892;DHT22;7016;48.172;8.058;2022-08-24T04:21:17;15.90;99.20
13892;DHT22;7016;48.172;8.058;2022-08-24T04:23:45;15.80;99.10
13892;DHT22;7016;48.172;8.058;2022-08-24T04:26:10;15.80;99.30
13892;DHT22;7016;48.172;8.058;2022-08-24T04:28:36;15.80;99.30
13892;DHT22;7016;48.172;8.058;2022-08-24T04:31:04;15.70;99.40
13892;DHT22;7016;48.172;8.058;2022-08-24T04:33:30;15.80;99.20
13892;DHT22;7016;48.172;8.058;2022-08-24T04:35:56;15.70;99.40
13892;DHT22;7016;48.172;8.058;2022-08-24T04:38:22;15.80;99.60
13892;DHT22;7016;48.172;8.058;2022-08-24T04:40:48;15.80;99.40
13892;DHT22;7016;48.172;8.058;2022-08-24T04:43:14;15.80;99.20
13892;DHT22;7016;48.172;8.058;2022-08-24T04:45:43;15.80;99.40
13892;DHT22;7016;48.172;8.058;2022-08-24T04:48:10;15.70;99.70
13892;DHT22;7016;48.172;8.058;2022-08-24T04:50:38;15.70;99.90
13892;DHT22;7016;48.172;8.058;2022-08-24T04:53:05;15.60;99.60
13892;DHT22;7016;48.172;8.058;2022-08-24T04:55:33;15.60;99.90
13892;DHT22;7016;48.172;8.058;2022-08-24T04:58:05;15.60;99.90
13892;DHT22;7016;48.172;8.058;2022-08-24T05:00:31;15.60;99.70
13892;DHT22;7016;48.172;8.058;2022-08-24T05:02:57;15.60;99.70
13892;DHT22;7016;48.172;8.058;2022-08-24T05:05:23;15.60;99.90
13892;DHT22;7016;48.172;8.058;2022-08-24T05:07:48;15.60;99.90
13892;DHT22;7016;48.172;8.058;2022-08-24T05:10:15;15.60;99.90
13892;DHT22;7016;48.172;8.058;2022-08-24T05:12:40;15.60;99.70
13892;DHT22;7016;48.172;8.058;2022-08-24T05:15:08;15.60;99.90
13892;DHT22;7016;48.172;8.058;2022-08-24T05:17:33;15.60;99.90
13892;DHT22;7016;48.172;8.058;2022-08-24T05:19:59;15.60;99.90
13892;DHT22;7016;48.172;8.058;2022-08-24T05:22:25;15.70;99.90
13892;DHT22;7016;48.172;8.058;2022-08-24T05:24:51;15.70;99.90
13892;DHT22;7016;48.172;8.058;2022-08-24T05:27:17;15.70;99.90
13892;DHT22;7016;48.172;8.058;2022-08-24T05:29:44;15.60;99.90
13892;DHT22;7016;48.172;8.058;2022-08-24T05:32:10;15.60;99.90
13892;DHT22;7016;48.172;8.058;2022-08-24T05:34:37;15.60;99.90
13892;DHT22;7016;48.172;8.058;2022-08-24T05:37:03;15.60;99.90
13892;DHT22;7016;48.172;8.058;2022-08-24T05:39:29;15.70;99.90
13892;DHT22;7016;48.172;8.058;2022-08-24T05:41:56;15.80;99.90
13892;DHT22;7016;48.172;8.058;2022-08-24T05:44:24;15.80;99.90
13892;DHT22;7016;48.172;8.058;2022-08-24T05:46:50;15.80;99.90
13892;DHT22;7016;48.172;8.058;2022-08-24T05:49:15;15.90;99.90
13892;DHT22;7016;48.172;8.058;2022-08-24T05:51:41;15.90;99.90
13892;DHT22;7016;48.172;8.058;2022-08-24T05:54:08;15.80;99.90
13892;DHT22;7016;48.172;8.058;2022-08-24T05:56:34;15.90;99.90
13892;DHT22;7016;48.172;8.058;2022-08-24T05:59:00;16.00;99.90
13892;DHT22;7016;48.172;8.058;2022-08-24T06:01:27;16.00;99.90
13892;DHT22;7016;48.172;8.058;2022-08-24T06:03:55;16.10;99.90
13892;DHT22;7016;48.172;8.058;2022-08-24T06:06:22;16.10;99.90
13892;DHT22;7016;48.172;8.058;2022-08-24T06:08:50;16.10;99.90
13892;DHT22;7016;48.172;8.058;2022-08-24T06:11:34;16.10;99.90
13892;DHT22;7016;48.172;8.058;2022-08-24T06:14:04;16.20;99.90
13892;DHT22;7016;48.172;8.058;2022-08-24T06:16:34;16.20;99.90
13892;DHT22;7016;48.172;8.058;2022-08-24T06:19:00;16.30;99.90
13892;DHT22;7016;48.172;8.058;2022-08-24T06:21:26;16.20;99.90
13892;DHT22;7016;48.172;8.058;2022-08-24T06:23:52;16.30;99.90
13892;DHT22;7016;48.172;8.058;2022-08-24T06:26:19;16.30;99.90
13892;DHT22;7016;48.172;8.058;2022-08-24T06:29:06;16.40;99.90
13892;DHT22;7016;48.172;8.058;2022-08-24T06:31:39;16.60;99.90
13892;DHT22;7016;48.172;8.058;2022-08-24T06:34:06;16.50;99.90
13892;DHT22;7016;48.172;8.058;2022-08-24T06:36:32;16.60;99.90
13892;DHT22;7016;48.172;8.058;2022-08-24T06:38:58;16.70;99.90
13892;DHT22;7016;48.172;8.058;2022-08-24T06:41:24;16.80;99.90
13892;DHT22;7016;48.172;8.058;2022-08-24T06:43:51;17.00;99.90
13892;DHT22;7016;48.172;8.058;2022-08-24T06:46:17;17.30;99.90
13892;DHT22;7016;48.172;8.058;2022-08-24T06:48:43;17.50;99.90
13892;DHT22;7016;48.172;8.058;2022-08-24T06:51:14;17.70;99.60
13892;DHT22;7016;48.172;8.058;2022-08-24T06:53:40;17.80;99.30
13892;DHT22;7016;48.172;8.058;2022-08-24T06:56:07;17.90;99.70
13892;DHT22;7016;48.172;8.058;2022-08-24T06:58:33;18.10;99.30
13892;DHT22;7016;48.172;8.058;2022-08-24T07:01:12;18.20;99.30
13892;DHT22;7016;48.172;8.058;2022-08-24T07:03:38;18.30;98.70
13892;DHT22;7016;48.172;8.058;2022-08-24T07:06:06;18.40;99.20
13892;DHT22;7016;48.172;8.058;2022-08-24T07:08:32;18.50;98.80
13892;DHT22;7016;48.172;8.058;2022-08-24T07:10:58;18.60;98.50
13892;DHT22;7016;48.172;8.058;2022-08-24T07:13:24;18.80;98.10
13892;DHT22;7016;48.172;8.058;2022-08-24T07:15:51;18.90;98.60
13892;DHT22;7016;48.172;8.058;2022-08-24T07:18:18;19.00;97.80
13892;DHT22;7016;48.172;8.058;2022-08-24T07:20:44;19.00;97.40
13892;DHT22;7016;48.172;8.058;2022-08-24T07:23:11;19.10;97.30
13892;DHT22;7016;48.172;8.058;2022-08-24T07:25:39;19.20;97.70
13892;DHT22;7016;48.172;8.058;2022-08-24T07:28:06;19.20;97.40
13892;DHT22;7016;48.172;8.058;2022-08-24T07:30:31;19.40;97.40
13892;DHT22;7016;48.172;8.058;2022-08-24T07:32:57;19.50;97.80
13892;DHT22;7016;48.172;8.058;2022-08-24T07:35:25;19.50;98.10
13892;DHT22;7016;48.172;8.058;2022-08-24T07:37:52;19.60;97.70
13892;DHT22;7016;48.172;8.058;2022-08-24T07:40:18;19.80;97.60
13892;DHT22;7016;48.172;8.058;2022-08-24T07:42:48;20.00;97.80
13892;DHT22;7016;48.172;8.058;2022-08-24T07:45:14;20.10;97.50
13892;DHT22;7016;48.172;8.058;2022-08-24T07:47:40;20.20;96.50
13892;DHT22;7016;48.172;8.058;2022-08-24T07:50:05;20.30;97.20
13892;DHT22;7016;48.172;8.058;2022-08-24T07:52:31;20.40;96.80
13892;DHT22;7016;48.172;8.058;2022-08-24T07:54:57;20.50;97.20
13892;DHT22;7016;48.172;8.058;2022-08-24T07:57:23;20.70;97.30
13892;DHT22;7016;48.172;8.058;2022-08-24T07:59:49;20.80;97.10
13892;DHT22;7016;48.172;8.058;2022-08-24T08:02:17;21.10;88.10
13892;DHT22;7016;48.172;8.058;2022-08-24T08:04:43;21.20;90.60
13892;DHT22;7016;48.172;8.058;2022-08-24T08:07:08;21.30;94.20
13892;DHT22;7016;48.172;8.058;2022-08-24T08:09:38;21.60;92.70
13892;DHT22;7016;48.172;8.058;2022-08-24T08:12:05;22.00;91.40
13892;DHT22;7016;48.172;8.058;2022-08-24T08:14:32;21.90;91.20
13892;DHT22;7016;48.172;8.058;2022-08-24T08:16:57;22.20;92.40
13892;DHT22;7016;48.172;8.058;2022-08-24T08:19:25;22.20;93.10
13892;DHT22;7016;48.172;8.058;2022-08-24T08:21:52;22.40;86.60
13892;DHT22;7016;48.172;8.058;2022-08-24T08:24:38;22.50;87.00
13892;DHT22;7016;48.172;8.058;2022-08-24T08:27:05;22.60;85.90
13892;DHT22;7016;48.172;8.058;2022-08-24T08:29:33;22.60;85.40
13892;DHT22;7016;48.172;8.058;2022-08-24T08:31:59;23.10;80.40
13892;DHT22;7016;48.172;8.058;2022-08-24T08:34:26;23.10;81.20
13892;DHT22;7016;48.172;8.058;2022-08-24T08:36:53;23.30;77.20
13892;DHT22;7016;48.172;8.058;2022-08-24T08:39:20;23.40;77.60
13892;DHT22;7016;48.172;8.058;2022-08-24T08:46:56;23.60;78.60
13892;DHT22;7016;48.172;8.058;2022-08-24T09:00:57;24.10;73.60
13892;DHT22;7016;48.172;8.058;2022-08-24T09:09:40;24.20;73.90
13892;DHT22;7016;48.172;8.058;2022-08-24T09:15:19;24.30;72.60
13892;DHT22;7016;48.172;8.058;2022-08-24T09:17:55;24.40;72.70
13892;DHT22;7016;48.172;8.058;2022-08-24T09:23:58;24.50;70.00
13892;DHT22;7016;48.172;8.058;2022-08-24T09:26:30;24.60;68.60
13892;DHT22;7016;48.172;8.058;2022-08-24T09:32:02;24.90;63.90
13892;DHT22;7016;48.172;8.058;2022-08-24T09:34:51;24.90;63.00
13892;DHT22;7016;48.172;8.058;2022-08-24T09:49:12;24.90;65.00
13892;DHT22;7016;48.172;8.058;2022-08-24T09:52:08;25.10;65.60
13892;DHT22;7016;48.172;8.058;2022-08-24T10:30:08;25.60;57.10
13892;DHT22;7016;48.172;8.058;2022-08-24T10:33:22;25.60;57.70
13892;DHT22;7016;48.172;8.058;2022-08-24T10:42:06;25.90;57.60
13892;DHT22;7016;48.172;8.058;2022-08-24T10:47:35;26.00;58.00
13892;DHT22;7016;48.172;8.058;2022-08-24T10:50:35;26.10;57.10
13892;DHT22;7016;48.172;8.058;2022-08-24T10:55:38;26.10;57.20
13892;DHT22;7016;48.172;8.058;2022-08-24T11:00:38;26.20;56.30
13892;DHT22;7016;48.172;8.058;2022-08-24T11:05:53;26.40;56.10
13892;DHT22;7016;48.172;8.058;2022-08-24T11:08:28;26.40;56.60
13892;DHT22;7016;48.172;8.058;2022-08-24T11:11:11;26.50;55.90
13892;DHT22;7016;48.172;8.058;2022-08-24T11:14:08;26.60;54.40
13892;DHT22;7016;48.172;8.058;2022-08-24T11:16:37;26.60;55.30
13892;DHT22;7016;48.172;8.058;2022-08-24T11:21:59;26.90;53.70
13892;DHT22;7016;48.172;8.058;2022-08-24T11:24:42;26.90;54.50
13892;DHT22;7016;48.172;8.058;2022-08-24T11:37:45;27.00;53.10
13892;DHT22;7016;48.172;8.058;2022-08-24T11:40:12;27.00;53.10
13892;DHT22;7016;48.172;8.058;2022-08-24T11:48:24;27.20;51.90
13892;DHT22;7016;48.172;8.058;2022-08-24T11:51:07;27.20;51.20
13892;DHT22;7016;48.172;8.058;2022-08-24T11:59:21;27.20;50.40
13892;DHT22;7016;48.172;8.058;2022-08-24T12:01:56;27.30;50.20
13892;DHT22;7016;48.172;8.058;2022-08-24T12:07:23;27.40;53.00
13892;DHT22;7016;48.172;8.058;2022-08-24T12:18:29;27.50;47.70
13892;DHT22;7016;48.172;8.058;2022-08-24T12:20:59;27.50;47.40
13892;DHT22;7016;48.172;8.058;2022-08-24T12:23:36;27.50;48.20
13892;DHT22;7016;48.172;8.058;2022-08-24T12:40:16;27.50;47.60
13892;DHT22;7016;48.172;8.058;2022-08-24T12:45:50;27.70;46.90
13892;DHT22;7016;48.172;8.058;2022-08-24T12:48:32;27.60;48.30
13892;DHT22;7016;48.172;8.058;2022-08-24T13:09:47;28.00;43.10
13892;DHT22;7016;48.172;8.058;2022-08-24T13:23:14;28.00;42.60
13892;DHT22;7016;48.172;8.058;2022-08-24T13:33:52;28.10;38.00
13892;DHT22;7016;48.172;8.058;2022-08-24T14:01:36;28.30;40.60
13892;DHT22;7016;48.172;8.058;2022-08-24T14:07:19;28.30;39.10
13892;DHT22;7016;48.172;8.058;2022-08-24T14:09:47;28.20;36.80
13892;DHT22;7016;48.172;8.058;2022-08-24T14:18:12;28.20;38.60
13892;DHT22;7016;48.172;8.058;2022-08-24T14:21:09;28.20;38.60
13892;DHT22;7016;48.172;8.058;2022-08-24T14:23:58;28.20;37.70
13892;DHT22;7016;48.172;8.058;2022-08-24T14:29:24;28.10;38.30
13892;DHT22;7016;48.172;8.058;2022-08-24T14:34:49;28.20;38.80
13892;DHT22;7016;48.172;8.058;2022-08-24T14:37:23;28.20;38.90
13892;DHT22;7016;48.172;8.058;2022-08-24T14:42:51;28.20;39.70
13892;DHT22;7016;48.172;8.058;2022-08-24T14:48:51;28.20;39.80
13892;DHT22;7016;48.172;8.058;2022-08-24T14:51:51;28.10;40.00
13892;DHT22;7016;48.172;8.058;2022-08-24T15:00:03;28.10;39.20
13892;DHT22;7016;48.172;8.058;2022-08-24T15:08:08;28.00;41.90
13892;DHT22;7016;48.172;8.058;2022-08-24T15:10:46;28.00;43.90
13892;DHT22;7016;48.172;8.058;2022-08-24T15:13:40;27.90;40.40
13892;DHT22;7016;48.172;8.058;2022-08-24T15:16:21;28.00;41.70
13892;DHT22;7016;48.172;8.058;2022-08-24T15:19:00;28.00;42.00
13892;DHT22;7016;48.172;8.058;2022-08-24T15:21:35;28.00;43.50
13892;DHT22;7016;48.172;8.058;2022-08-24T15:24:45;28.00;42.30
13892;DHT22;7016;48.172;8.058;2022-08-24T15:30:16;28.10;42.90
13892;DHT22;7016;48.172;8.058;2022-08-24T15:32:51;28.00;42.90
13892;DHT22;7016;48.172;8.058;2022-08-24T15:35:28;28.00;42.50
13892;DHT22;7016;48.172;8.058;2022-08-24T15:37:55;28.10;43.00
13892;DHT22;7016;48.172;8.058;2022-08-24T15:40:29;28.00;42.60
13892;DHT22;7016;48.172;8.058;2022-08-24T15:43:00;28.00;41.10
13892;DHT22;7016;48.172;8.058;2022-08-24T15:45:29;28.00;41.40
13892;DHT22;7016;48.172;8.058;2022-08-24T15:47:56;28.10;41.50
13892;DHT22;7016;48.172;8.058;2022-08-24T15:50:32;28.10;41.40
13892;DHT22;7016;48.172;8.058;2022-08-24T15:53:02;28.20;42.40
13892;DHT22;7016;48.172;8.058;2022-08-24T15:55:36;28.20;42.90
13892;DHT22;7016;48.172;8.058;2022-08-24T16:00:43;28.10;42.30
13892;DHT22;7016;48.172;8.058;2022-08-24T16:14:00;28.10;41.40
13892;DHT22;7016;48.172;8.058;2022-08-24T16:16:37;28.10;41.30
13892;DHT22;7016;48.172;8.058;2022-08-24T16:19:05;28.20;41.80
13892;DHT22;7016;48.172;8.058;2022-08-24T16:34:54;28.20;43.00
13892;DHT22;7016;48.172;8.058;2022-08-24T16:37:22;28.10;42.80
13892;DHT22;7016;48.172;8.058;2022-08-24T16:39:48;28.10;44.20
13892;DHT22;7016;48.172;8.058;2022-08-24T16:42:26;28.00;45.00
13892;DHT22;7016;48.172;8.058;2022-08-24T16:44:52;28.10;45.30
13892;DHT22;7016;48.172;8.058;2022-08-24T16:47:19;28.00;45.80
13892;DHT22;7016;48.172;8.058;2022-08-24T16:49:46;28.10;46.00
13892;DHT22;7016;48.172;8.058;2022-08-24T16:52:12;28.00;45.60
13892;DHT22;7016;48.172;8.058;2022-08-24T16:54:38;28.00;46.30
13892;DHT22;7016;48.172;8.058;2022-08-24T16:59:37;27.90;45.60
13892;DHT22;7016;48.172;8.058;2022-08-24T17:02:03;27.90;46.10
13892;DHT22;7016;48.172;8.058;2022-08-24T17:04:29;27.90;46.50
13892;DHT22;7016;48.172;8.058;2022-08-24T17:06:55;27.90;46.70
13892;DHT22;7016;48.172;8.058;2022-08-24T17:09:21;27.90;46.90
13892;DHT22;7016;48.172;8.058;2022-08-24T17:11:47;27.80;48.80
13892;DHT22;7016;48.172;8.058;2022-08-24T17:14:14;27.80;49.50
13892;DHT22;7016;48.172;8.058;2022-08-24T17:16:41;27.80;51.40
13892;DHT22;7016;48.172;8.058;2022-08-24T17:19:10;27.80;50.70
13892;DHT22;7016;48.172;8.058;2022-08-24T17:21:37;27.60;52.50
13892;DHT22;7016;48.172;8.058;2022-08-24T17:24:05;27.60;53.00
13892;DHT22;7016;48.172;8.058;2022-08-24T17:26:31;27.50;52.70
13892;DHT22;7016;48.172;8.058;2022-08-24T17:28:57;27.40;53.40
13892;DHT22;7016;48.172;8.058;2022-08-24T17:31:23;27.30;55.40
13892;DHT22;7016;48.172;8.058;2022-08-24T17:33:50;27.20;55.40
13892;DHT22;7016;48.172;8.058;2022-08-24T17:36:18;27.20;54.60
13892;DHT22;7016;48.172;8.058;2022-08-24T17:38:47;27.10;51.50
13892;DHT22;7016;48.172;8.058;2022-08-24T17:41:13;27.10;54.40
13892;DHT22;7016;48.172;8.058;2022-08-24T17:43:39;27.00;54.90
13892;DHT22;7016;48.172;8.058;2022-08-24T17:46:08;27.00;56.70
13892;DHT22;7016;48.172;8.058;2022-08-24T17:48:34;26.90;57.30
13892;DHT22;7016;48.172;8.058;2022-08-24T17:51:00;26.80;54.60
13892;DHT22;7016;48.172;8.058;2022-08-24T17:53:26;26.80;55.80
13892;DHT22;7016;48.172;8.058;2022-08-24T17:55:52;26.80;54.00
13892;DHT22;7016;48.172;8.058;2022-08-24T17:58:18;26.80;55.10
13892;DHT22;7016;48.172;8.058;2022-08-24T18:00:44;26.70;56.70
13892;DHT22;7016;48.172;8.058;2022-08-24T18:03:10;26.50;57.80
13892;DHT22;7016;48.172;8.058;2022-08-24T18:05:37;26.50;58.50
13892;DHT22;7016;48.172;8.058;2022-08-24T18:08:03;26.40;59.80
13892;DHT22;7016;48.172;8.058;2022-08-24T18:10:30;26.20;59.30
13892;DHT22;7016;48.172;8.058;2022-08-24T18:12:58;26.20;58.90
13892;DHT22;7016;48.172;8.058;2022-08-24T18:15:25;26.20;59.40
13892;DHT22;7016;48.172;8.058;2022-08-24T18:17:53;26.10;59.80
13892;DHT22;7016;48.172;8.058;2022-08-24T18:20:23;26.10;58.10
13892;DHT22;7016;48.172;8.058;2022-08-24T18:22:49;26.00;58.30
13892;DHT22;7016;48.172;8.058;2022-08-24T18:25:17;25.90;61.40
13892;DHT22;7016;48.172;8.058;2022-08-24T18:27:44;25.80;61.40
13892;DHT22;7016;48.172;8.058;2022-08-24T18:30:18;25.70;61.80
13892;DHT22;7016;48.172;8.058;2022-08-24T18:32:44;25.70;60.90
13892;DHT22;7016;48.172;8.058;2022-08-24T18:35:10;25.60;63.00
13892;DHT22;7016;48.172;8.058;2022-08-24T18:37:35;25.50;64.40
13892;DHT22;7016;48.172;8.058;2022-08-24T18:40:02;25.50;65.00
13892;DHT22;7016;48.172;8.058;2022-08-24T18:42:28;25.30;63.70
13892;DHT22;7016;48.172;8.058;2022-08-24T18:44:54;25.20;63.80
13892;DHT22;7016;48.172;8.058;2022-08-24T18:47:20;25.30;63.20
13892;DHT22;7016;48.172;8.058;2022-08-24T18:49:46;25.30;62.30
13892;DHT22;7016;48.172;8.058;2022-08-24T18:52:13;25.10;67.00
13892;DHT22;7016;48.172;8.058;2022-08-24T18:54:41;25.10;67.90
13892;DHT22;7016;48.172;8.058;2022-08-24T18:57:07;25.10;67.20
13892;DHT22;7016;48.172;8.058;2022-08-24T18:59:34;25.00;67.40
13892;DHT22;7016;48.172;8.058;2022-08-24T19:02:22;24.80;69.00
13892;DHT22;7016;48.172;8.058;2022-08-24T19:07:30;24.70;70.30
13892;DHT22;7016;48.172;8.058;2022-08-24T19:09:57;24.60;69.60
13892;DHT22;7016;48.172;8.058;2022-08-24T19:12:23;24.50;70.70
13892;DHT22;7016;48.172;8.058;2022-08-24T19:14:53;24.50;71.20
13892;DHT22;7016;48.172;8.058;2022-08-24T19:17:20;24.40;71.90
13892;DHT22;7016;48.172;8.058;2022-08-24T19:19:46;24.30;71.90
13892;DHT22;7016;48.172;8.058;2022-08-24T19:22:12;24.20;73.30
13892;DHT22;7016;48.172;8.058;2022-08-24T19:24:38;24.10;73.30
13892;DHT22;7016;48.172;8.058;2022-08-24T19:27:04;24.20;74.00
13892;DHT22;7016;48.172;8.058;2022-08-24T19:29:31;24.00;73.40
13892;DHT22;7016;48.172;8.058;2022-08-24T19:31:57;23.80;74.30
13892;DHT22;7016;48.172;8.058;2022-08-24T19:34:23;23.80;74.50
13892;DHT22;7016;48.172;8.058;2022-08-24T19:36:49;23.70;73.50
13892;DHT22;7016;48.172;8.058;2022-08-24T19:39:16;23.60;73.90
13892;DHT22;7016;48.172;8.058;2022-08-24T19:41:44;23.60;76.10
13892;DHT22;7016;48.172;8.058;2022-08-24T19:44:10;23.50;76.80
13892;DHT22;7016;48.172;8.058;2022-08-24T19:46:55;23.40;74.50
13892;DHT22;7016;48.172;8.058;2022-08-24T19:49:22;23.40;74.90
13892;DHT22;7016;48.172;8.058;2022-08-24T19:51:48;23.40;75.10
13892;DHT22;7016;48.172;8.058;2022-08-24T19:54:14;23.40;75.50
13892;DHT22;7016;48.172;8.058;2022-08-24T19:56:39;23.40;76.30
13892;DHT22;7016;48.172;8.058;2022-08-24T19:59:14;23.30;78.90
13892;DHT22;7016;48.172;8.058;2022-08-24T20:01:42;23.00;76.00
13892;DHT22;7016;48.172;8.058;2022-08-24T20:04:08;23.00;76.70
13892;DHT22;7016;48.172;8.058;2022-08-24T20:06:35;23.00;76.70
13892;DHT22;7016;48.172;8.058;2022-08-24T20:09:03;23.10;79.50
13892;DHT22;7016;48.172;8.058;2022-08-24T20:11:28;23.00;78.00
13892;DHT22;7016;48.172;8.058;2022-08-24T20:13:54;23.00;79.20
13892;DHT22;7016;48.172;8.058;2022-08-24T20:16:21;22.90;78.30
13892;DHT22;7016;48.172;8.058;2022-08-24T20:18:48;22.90;78.60
13892;DHT22;7016;48.172;8.058;2022-08-24T20:21:14;22.90;79.40
13892;DHT22;7016;48.172;8.058;2022-08-24T20:23:41;22.90;79.20
13892;DHT22;7016;48.172;8.058;2022-08-24T20:26:07;22.90;79.50
13892;DHT22;7016;48.172;8.058;2022-08-24T20:28:44;22.90;81.60
13892;DHT22;7016;48.172;8.058;2022-08-24T20:31:11;22.70;82.40
13892;DHT22;7016;48.172;8.058;2022-08-24T20:33:38;22.60;80.20
13892;DHT22;7016;48.172;8.058;2022-08-24T20:36:05;22.50;82.80
13892;DHT22;7016;48.172;8.058;2022-08-24T20:38:31;22.50;82.40